createdAt,value
2023-07-21T00:00:19.337Z,98.90
2023-07-21T00:02:46.737Z,98.80
2023-07-21T00:05:15.215Z,98.80
2023-07-21T00:07:42.462Z,98.80
2023-07-21T00:10:10.585Z,98.80
2023-07-21T00:12:41.394Z,98.80
2023-07-21T00:15:09.670Z,98.80
2023-07-21T00:17:36.642Z,98.70
2023-07-21T00:20:12.387Z,98.70
2023-07-21T00:22:41.213Z,98.70
2023-07-21T00:25:12.097Z,98.70
2023-07-21T00:27:40.457Z,98.60
2023-07-21T00:30:10.584Z,98.60
2023-07-21T00:32:38.205Z,98.70
2023-07-21T00:35:10.157Z,98.70
2023-07-21T00:37:38.453Z,98.70
2023-07-21T00:40:06.793Z,98.70
2023-07-21T00:42:33.755Z,98.80
2023-07-21T00:45:00.615Z,98.80
2023-07-21T00:47:28.674Z,98.80
2023-07-21T00:49:57.855Z,98.80
2023-07-21T00:52:28.169Z,98.70
2023-07-21T00:54:55.833Z,98.70
2023-07-21T00:57:23.593Z,98.70
2023-07-21T00:59:52.181Z,98.70
2023-07-21T01:02:19.502Z,98.70
2023-07-21T01:04:47.639Z,98.70
2023-07-21T01:07:16.312Z,98.70
2023-07-21T01:09:44.815Z,98.70
2023-07-21T01:12:13.198Z,98.70
2023-07-21T01:14:40.202Z,98.60
2023-07-21T01:17:09.029Z,98.60
2023-07-21T01:19:37.955Z,98.60
2023-07-21T01:22:13.209Z,98.60
2023-07-21T01:24:47.657Z,98.60
2023-07-21T01:27:17.029Z,98.70
2023-07-21T01:29:45.045Z,98.80
2023-07-21T01:32:13.746Z,99.10
2023-07-21T01:34:41.731Z,98.90
2023-07-21T01:37:09.756Z,99.00
2023-07-21T01:39:38.117Z,99.10
2023-07-21T01:42:06.639Z,99.10
2023-07-21T01:44:34.313Z,99.20
2023-07-21T01:47:01.625Z,99.20
2023-07-21T01:49:28.634Z,99.30
2023-07-21T01:51:59.823Z,99.30
2023-07-21T01:54:41.795Z,99.30
2023-07-21T01:57:10.966Z,99.30
2023-07-21T01:59:40.357Z,99.30
2023-07-21T02:02:07.940Z,99.40
2023-07-21T02:04:36.298Z,99.40
2023-07-21T02:07:03.226Z,99.40
2023-07-21T02:09:30.041Z,99.30
2023-07-21T02:11:57.001Z,99.30
2023-07-21T02:14:24.111Z,99.30
2023-07-21T02:16:50.992Z,99.30
2023-07-21T02:19:19.088Z,99.30
2023-07-21T02:21:46.009Z,99.60
2023-07-21T02:24:13.150Z,99.30
2023-07-21T02:26:40.048Z,99.30
2023-07-21T02:29:06.983Z,99.30
2023-07-21T02:31:33.877Z,99.30
2023-07-21T02:34:00.759Z,99.40
2023-07-21T02:36:28.064Z,99.30
2023-07-21T02:38:55.107Z,99.30
2023-07-21T02:41:21.935Z,99.30
2023-07-21T02:43:48.864Z,99.30
2023-07-21T02:46:15.785Z,99.40
2023-07-21T02:48:42.686Z,99.30
2023-07-21T02:51:09.573Z,99.50
2023-07-21T02:53:36.426Z,99.50
2023-07-21T02:56:06.943Z,99.50
2023-07-21T02:58:33.898Z,99.50
2023-07-21T03:01:04.529Z,99.50
2023-07-21T03:03:33.803Z,99.50
2023-07-21T03:06:01.277Z,99.40
2023-07-21T03:08:30.487Z,99.40
2023-07-21T03:10:57.810Z,99.50
2023-07-21T03:13:25.870Z,99.50
2023-07-21T03:15:55.942Z,99.40
2023-07-21T03:18:23.382Z,99.40
2023-07-21T03:20:50.680Z,99.40
2023-07-21T03:23:17.687Z,99.50
2023-07-21T03:25:44.498Z,99.50
2023-07-21T03:28:11.302Z,99.50
2023-07-21T03:30:38.113Z,99.60
2023-07-21T03:33:05.017Z,99.60
2023-07-21T03:35:31.826Z,99.70
2023-07-21T03:37:59.035Z,99.70
2023-07-21T03:40:26.069Z,99.80
2023-07-21T03:42:54.338Z,99.90
2023-07-21T03:45:22.096Z,99.90
2023-07-21T03:47:49.858Z,99.90
2023-07-21T03:50:16.809Z,99.90
2023-07-21T03:52:43.631Z,99.90
2023-07-21T03:55:10.476Z,99.90
2023-07-21T03:57:37.712Z,99.90
2023-07-21T04:00:06.973Z,99.90
2023-07-21T04:02:33.870Z,99.90
2023-07-21T04:05:00.778Z,99.90
2023-07-21T04:07:27.788Z,99.90
2023-07-21T04:09:55.802Z,99.90
2023-07-21T04:12:23.062Z,99.90
2023-07-21T04:14:49.953Z,99.90
2023-07-21T04:17:17.008Z,99.90
2023-07-21T04:19:43.889Z,99.90
2023-07-21T04:22:10.737Z,99.90
2023-07-21T04:24:37.616Z,99.90
2023-07-21T04:27:04.787Z,99.90
2023-07-21T04:29:36.781Z,99.90
2023-07-21T04:32:04.256Z,99.90
2023-07-21T04:34:31.966Z,99.90
2023-07-21T04:36:59.105Z,99.90
2023-07-21T04:39:25.985Z,99.90
2023-07-21T04:41:52.829Z,99.90
2023-07-21T04:44:19.629Z,99.90
2023-07-21T04:46:47.712Z,99.90
2023-07-21T04:49:14.770Z,99.90
2023-07-21T04:51:41.897Z,99.90
2023-07-21T04:54:08.775Z,99.90
2023-07-21T04:56:36.221Z,99.90
2023-07-21T04:59:03.350Z,99.90
2023-07-21T05:01:30.432Z,99.90
2023-07-21T05:03:59.180Z,99.90
2023-07-21T05:06:26.433Z,99.90
2023-07-21T05:08:53.599Z,99.90
2023-07-21T05:11:20.581Z,99.90
2023-07-21T05:13:49.621Z,99.90
2023-07-21T05:16:16.489Z,99.90
2023-07-21T05:18:43.524Z,99.90
2023-07-21T05:21:10.396Z,99.90
2023-07-21T05:23:37.245Z,99.90
2023-07-21T05:26:04.148Z,99.90
2023-07-21T05:28:31.047Z,99.90
2023-07-21T05:30:58.324Z,99.90
2023-07-21T05:33:25.666Z,99.90
2023-07-21T05:35:52.550Z,99.90
2023-07-21T05:38:19.616Z,99.90
2023-07-21T05:40:57.996Z,99.90
2023-07-21T05:43:25.107Z,99.90
2023-07-21T05:45:52.007Z,99.90
2023-07-21T05:48:19.087Z,99.90
2023-07-21T05:50:47.048Z,99.90
2023-07-21T05:53:15.832Z,99.90
2023-07-21T05:55:43.409Z,99.90
2023-07-21T05:58:10.415Z,99.90
2023-07-21T06:00:38.167Z,99.90
2023-07-21T06:03:05.273Z,99.90
2023-07-21T06:05:33.400Z,99.90
2023-07-21T06:08:00.239Z,99.90
2023-07-21T06:10:27.092Z,99.90
2023-07-21T06:12:56.529Z,99.90
2023-07-21T06:15:25.599Z,99.90
2023-07-21T06:17:53.833Z,99.90
2023-07-21T06:20:26.205Z,99.90
2023-07-21T06:22:53.337Z,99.90
2023-07-21T06:25:20.297Z,99.90
2023-07-21T06:27:51.855Z,99.90
2023-07-21T06:30:18.802Z,99.90
2023-07-21T06:32:45.643Z,99.90
2023-07-21T06:35:12.609Z,99.90
2023-07-21T06:37:39.433Z,99.90
2023-07-21T06:40:08.771Z,99.90
2023-07-21T06:42:35.604Z,99.90
2023-07-21T06:45:02.530Z,99.90
2023-07-21T06:47:29.441Z,99.90
2023-07-21T06:49:56.259Z,99.90
2023-07-21T06:52:23.233Z,99.90
2023-07-21T06:54:50.518Z,99.90
2023-07-21T06:57:17.277Z,99.90
2023-07-21T06:59:44.147Z,99.90
2023-07-21T07:02:11.704Z,99.90
2023-07-21T07:04:38.839Z,99.90
2023-07-21T07:07:06.118Z,99.90
2023-07-21T07:09:33.041Z,99.90
2023-07-21T07:12:00.192Z,99.90
2023-07-21T07:14:28.287Z,99.90
2023-07-21T07:16:55.202Z,99.90
2023-07-21T07:19:22.499Z,99.90
2023-07-21T07:21:49.390Z,99.90
2023-07-21T07:24:16.223Z,99.90
2023-07-21T07:26:43.137Z,99.90
2023-07-21T07:29:09.989Z,99.90
2023-07-21T07:31:38.555Z,99.90
2023-07-21T07:34:05.892Z,99.90
2023-07-21T07:36:32.937Z,99.90
2023-07-21T07:38:59.757Z,99.90
2023-07-21T07:41:26.871Z,99.90
2023-07-21T07:43:54.417Z,99.90
2023-07-21T07:46:21.804Z,99.90
2023-07-21T07:48:49.222Z,99.90
2023-07-21T07:51:16.205Z,99.90
2023-07-21T07:53:43.093Z,99.90
2023-07-21T07:56:16.213Z,99.90
2023-07-21T07:58:43.521Z,99.90
2023-07-21T08:01:14.426Z,99.90
2023-07-21T08:03:45.595Z,99.90
2023-07-21T08:06:14.164Z,99.90
2023-07-21T08:08:41.525Z,99.90
2023-07-21T08:11:08.476Z,99.90
2023-07-21T08:13:35.823Z,99.90
2023-07-21T08:16:08.503Z,99.90
2023-07-21T08:18:35.371Z,99.90
2023-07-21T08:21:18.105Z,99.90
2023-07-21T08:23:45.232Z,99.90
2023-07-21T08:26:12.062Z,99.90
2023-07-21T08:28:38.868Z,99.90
2023-07-21T08:31:05.754Z,99.90
2023-07-21T08:33:32.610Z,99.90
2023-07-21T08:35:59.953Z,99.90
2023-07-21T08:38:26.911Z,99.90
2023-07-21T08:41:07.915Z,99.90
2023-07-21T08:43:35.246Z,99.90
2023-07-21T08:46:04.914Z,99.90
2023-07-21T08:48:32.302Z,99.90
2023-07-21T08:50:59.799Z,99.90
2023-07-21T08:53:27.518Z,99.90
2023-07-21T08:55:58.716Z,99.90
2023-07-21T08:58:27.728Z,99.90
2023-07-21T09:00:56.980Z,99.90
2023-07-21T09:03:33.633Z,99.90
2023-07-21T09:06:01.727Z,99.90
2023-07-21T09:08:30.897Z,99.90
2023-07-21T09:11:01.737Z,99.90
2023-07-21T09:13:30.673Z,99.50
2023-07-21T09:16:06.949Z,99.00
2023-07-21T09:18:42.762Z,98.30
2023-07-21T09:21:29.995Z,98.40
2023-07-21T09:24:10.334Z,98.40
2023-07-21T09:26:37.209Z,97.90
2023-07-21T09:29:18.193Z,97.80
2023-07-21T09:31:48.336Z,97.90
2023-07-21T09:34:15.228Z,97.90
2023-07-21T09:36:48.535Z,98.00
2023-07-21T09:39:16.975Z,97.00
2023-07-21T09:41:45.324Z,96.80
2023-07-21T09:44:13.623Z,96.70
2023-07-21T09:46:41.415Z,96.20
2023-07-21T09:49:08.336Z,95.60
2023-07-21T09:51:38.547Z,94.50
2023-07-21T09:54:06.873Z,94.00
2023-07-21T09:56:41.691Z,93.90
2023-07-21T09:59:11.189Z,94.10
2023-07-21T10:01:38.359Z,94.00
2023-07-21T10:04:05.613Z,93.60
2023-07-21T10:06:34.232Z,93.20
2023-07-21T10:09:02.417Z,93.30
2023-07-21T10:11:29.588Z,93.20
2023-07-21T10:13:56.394Z,93.70
2023-07-21T10:16:23.506Z,94.70
2023-07-21T10:19:08.022Z,95.40
2023-07-21T10:21:52.618Z,96.20
2023-07-21T10:24:27.564Z,96.90
2023-07-21T10:27:02.040Z,97.40
2023-07-21T10:29:28.982Z,97.50
2023-07-21T10:31:57.772Z,97.50
2023-07-21T10:34:26.616Z,97.50
2023-07-21T10:36:53.352Z,97.70
2023-07-21T10:39:32.340Z,97.40
2023-07-21T10:42:01.379Z,97.20
2023-07-21T10:44:35.357Z,96.40
2023-07-21T10:47:02.698Z,95.90
2023-07-21T10:49:29.597Z,94.80
2023-07-21T10:51:56.488Z,93.80
2023-07-21T10:54:23.326Z,93.70
2023-07-21T10:56:52.348Z,92.70
2023-07-21T10:59:20.693Z,92.00
2023-07-21T11:01:52.383Z,92.10
2023-07-21T11:04:21.465Z,91.30
2023-07-21T11:06:57.799Z,92.00
2023-07-21T11:09:25.580Z,91.90
2023-07-21T11:11:54.480Z,91.50
2023-07-21T11:14:25.102Z,91.40
2023-07-21T11:16:57.429Z,91.40
2023-07-21T11:19:26.411Z,91.70
2023-07-21T11:21:55.437Z,92.00
2023-07-21T11:24:26.912Z,90.90
2023-07-21T11:27:05.471Z,91.00
2023-07-21T11:29:42.139Z,88.70
2023-07-21T11:32:26.115Z,88.60
2023-07-21T11:34:57.875Z,90.20
2023-07-21T11:37:25.104Z,90.40
2023-07-21T11:39:59.188Z,90.50
2023-07-21T11:42:26.368Z,90.60
2023-07-21T11:44:54.293Z,89.60
2023-07-21T11:47:21.778Z,89.30
2023-07-21T11:49:49.582Z,86.90
2023-07-21T11:52:26.056Z,84.60
2023-07-21T11:54:53.890Z,83.50
2023-07-21T11:57:21.043Z,83.00
2023-07-21T11:59:47.887Z,83.00
2023-07-21T12:02:18.102Z,84.30
2023-07-21T12:04:45.415Z,83.20
2023-07-21T12:07:12.341Z,81.90
2023-07-21T12:09:39.808Z,82.10
2023-07-21T12:12:08.916Z,82.60
2023-07-21T12:14:35.946Z,83.20
2023-07-21T12:17:03.024Z,83.60
2023-07-21T12:19:30.121Z,83.50
2023-07-21T12:21:57.201Z,83.70
2023-07-21T12:24:24.177Z,82.30
2023-07-21T12:26:51.062Z,81.80
2023-07-21T12:29:33.247Z,81.20
2023-07-21T12:32:05.209Z,80.80
2023-07-21T12:34:32.243Z,80.20
2023-07-21T12:36:59.577Z,80.60
2023-07-21T12:39:26.780Z,81.50
2023-07-21T12:41:55.581Z,82.10
2023-07-21T12:44:24.000Z,80.50
2023-07-21T12:46:50.865Z,79.70
2023-07-21T12:49:17.922Z,79.80
2023-07-21T12:51:45.202Z,77.20
2023-07-21T12:54:12.328Z,72.60
2023-07-21T12:56:39.221Z,73.00
2023-07-21T12:59:06.614Z,72.60
2023-07-21T13:01:33.721Z,72.90
2023-07-21T13:04:00.814Z,72.30
2023-07-21T13:06:28.755Z,71.10
2023-07-21T13:08:57.049Z,72.50
2023-07-21T13:11:23.954Z,73.80
2023-07-21T13:13:52.857Z,68.50
2023-07-21T13:16:20.705Z,66.50
2023-07-21T13:18:48.021Z,65.60
2023-07-21T13:21:15.270Z,64.60
2023-07-21T13:23:42.395Z,68.80
2023-07-21T13:26:09.272Z,69.40
2023-07-21T13:28:36.068Z,70.10
2023-07-21T13:31:02.865Z,70.70
2023-07-21T13:33:29.655Z,70.20
2023-07-21T13:35:56.569Z,68.60
2023-07-21T13:38:24.104Z,67.00
2023-07-21T13:40:50.945Z,68.00
2023-07-21T13:43:17.777Z,68.10
2023-07-21T13:45:44.758Z,68.10
2023-07-21T13:48:14.137Z,68.20
2023-07-21T13:50:41.292Z,67.60
2023-07-21T13:53:08.096Z,67.40
2023-07-21T13:55:34.929Z,68.50
2023-07-21T13:58:02.495Z,68.10
2023-07-21T14:00:30.856Z,68.30
2023-07-21T14:02:57.835Z,63.70
2023-07-21T14:05:25.505Z,64.20
2023-07-21T14:07:52.583Z,65.60
2023-07-21T14:10:19.444Z,67.00
2023-07-21T14:12:47.300Z,66.30
2023-07-21T14:15:14.587Z,66.00
2023-07-21T14:17:41.735Z,66.00
2023-07-21T14:20:14.261Z,65.30
2023-07-21T14:22:41.323Z,68.40
2023-07-21T14:25:10.027Z,69.90
2023-07-21T14:27:38.683Z,70.60
2023-07-21T14:30:08.793Z,70.10
2023-07-21T14:32:35.675Z,70.50
2023-07-21T14:35:02.718Z,70.50
2023-07-21T14:37:30.430Z,70.60
2023-07-21T14:39:57.240Z,71.10
2023-07-21T14:42:24.139Z,71.40
2023-07-21T14:44:50.953Z,71.90
2023-07-21T14:47:17.779Z,72.90
2023-07-21T14:49:44.613Z,72.60
2023-07-21T14:52:11.840Z,71.80
2023-07-21T14:54:39.130Z,71.20
2023-07-21T14:57:07.188Z,71.20
2023-07-21T14:59:34.145Z,71.50
2023-07-21T15:02:01.291Z,71.40
2023-07-21T15:04:28.193Z,72.10
2023-07-21T15:06:55.148Z,73.00
2023-07-21T15:09:22.063Z,73.40
2023-07-21T15:11:49.300Z,73.50
2023-07-21T15:14:16.242Z,73.00
2023-07-21T15:16:43.064Z,73.90
2023-07-21T15:19:09.887Z,73.90
2023-07-21T15:21:36.641Z,74.30
2023-07-21T15:24:04.061Z,75.20
2023-07-21T15:26:31.053Z,75.80
2023-07-21T15:29:00.796Z,75.20
2023-07-21T15:31:27.925Z,75.20
2023-07-21T15:33:54.840Z,75.20
2023-07-21T15:36:21.862Z,75.30
2023-07-21T15:38:48.853Z,74.90
2023-07-21T15:41:16.080Z,75.60
2023-07-21T15:43:42.924Z,76.10
2023-07-21T15:46:09.839Z,76.90
2023-07-21T15:48:37.469Z,76.60
2023-07-21T15:51:06.685Z,76.70
2023-07-21T15:53:33.490Z,77.80
2023-07-21T15:56:00.260Z,78.90
2023-07-21T15:58:27.055Z,78.70
2023-07-21T16:00:59.100Z,78.40
2023-07-21T16:03:28.732Z,79.70
2023-07-21T16:05:56.470Z,78.40
2023-07-21T16:08:24.009Z,77.50
2023-07-21T16:10:50.867Z,76.70
2023-07-21T16:13:18.628Z,77.10
2023-07-21T16:15:46.158Z,76.10
2023-07-21T16:18:14.837Z,75.80
2023-07-21T16:20:43.629Z,76.00
2023-07-21T16:23:14.174Z,75.30
2023-07-21T16:25:41.456Z,75.40
2023-07-21T16:28:08.287Z,76.20
2023-07-21T16:30:37.584Z,76.90
2023-07-21T16:33:04.702Z,75.50
2023-07-21T16:35:31.666Z,75.00
2023-07-21T16:37:59.244Z,75.60
2023-07-21T16:40:26.318Z,75.30
2023-07-21T16:42:53.127Z,73.90
2023-07-21T16:45:19.944Z,73.70
2023-07-21T16:47:46.898Z,74.20
2023-07-21T16:50:13.977Z,75.00
2023-07-21T16:52:40.866Z,74.40
2023-07-21T16:55:08.862Z,75.10
2023-07-21T16:57:35.723Z,74.70
2023-07-21T17:00:12.065Z,75.60
2023-07-21T17:02:41.616Z,76.60
2023-07-21T17:05:29.004Z,77.20
2023-07-21T17:07:56.626Z,77.40
2023-07-21T17:10:23.417Z,77.80
2023-07-21T17:12:50.228Z,78.00
2023-07-21T17:15:17.260Z,78.40
2023-07-21T17:17:44.107Z,78.30
2023-07-21T17:20:14.453Z,79.00
2023-07-21T17:22:47.075Z,79.00
2023-07-21T17:25:14.499Z,79.70
2023-07-21T17:27:41.530Z,79.60
2023-07-21T17:30:08.977Z,79.70
2023-07-21T17:32:36.301Z,80.20
2023-07-21T17:35:03.265Z,80.90
2023-07-21T17:37:30.219Z,82.00
2023-07-21T17:39:57.870Z,81.20
2023-07-21T17:42:24.665Z,81.70
2023-07-21T17:44:51.516Z,82.20
2023-07-21T17:47:18.417Z,82.60
2023-07-21T17:49:45.216Z,82.40
2023-07-21T17:52:12.098Z,82.70
2023-07-21T17:54:38.891Z,82.70
2023-07-21T17:57:07.148Z,82.60
2023-07-21T17:59:34.122Z,83.40
2023-07-21T18:02:00.997Z,83.60
2023-07-21T18:04:27.868Z,84.00
2023-07-21T18:06:55.141Z,84.10
2023-07-21T18:09:22.021Z,84.40
2023-07-21T18:11:48.876Z,84.70
2023-07-21T18:14:15.720Z,85.00
2023-07-21T18:16:42.694Z,85.10
2023-07-21T18:19:09.503Z,85.70
2023-07-21T18:21:36.816Z,86.80
2023-07-21T18:24:03.801Z,86.90
2023-07-21T18:26:30.678Z,87.60
2023-07-21T18:29:00.376Z,88.10
2023-07-21T18:31:27.832Z,88.50
2023-07-21T18:33:55.356Z,88.80
2023-07-21T18:36:22.279Z,88.90
2023-07-21T18:38:50.232Z,89.00
2023-07-21T18:41:19.486Z,89.10
2023-07-21T18:43:46.412Z,89.20
2023-07-21T18:46:13.292Z,89.20
2023-07-21T18:48:40.354Z,90.10
2023-07-21T18:51:07.245Z,89.80
2023-07-21T18:53:34.171Z,90.00
2023-07-21T18:56:01.000Z,90.00
2023-07-21T18:58:27.797Z,90.00
2023-07-21T19:00:54.576Z,90.00
2023-07-21T19:03:21.409Z,90.00
2023-07-21T19:05:48.442Z,90.00
2023-07-21T19:08:15.223Z,90.00
2023-07-21T19:10:42.007Z,89.90
2023-07-21T19:13:08.935Z,90.00
2023-07-21T19:15:37.947Z,90.00
2023-07-21T19:18:05.009Z,90.10
2023-07-21T19:20:31.787Z,89.60
2023-07-21T19:22:59.032Z,90.00
2023-07-21T19:25:25.862Z,90.00
2023-07-21T19:27:53.770Z,90.00
2023-07-21T19:30:20.736Z,90.10
2023-07-21T19:32:47.584Z,89.70
2023-07-21T19:35:14.473Z,90.20
2023-07-21T19:37:41.727Z,90.20
2023-07-21T19:40:10.195Z,90.30
2023-07-21T19:42:37.523Z,90.20
2023-07-21T19:45:05.085Z,90.40
2023-07-21T19:47:32.188Z,90.70
2023-07-21T19:49:59.065Z,90.50
2023-07-21T19:52:26.141Z,90.60
2023-07-21T19:54:52.920Z,90.70
2023-07-21T19:57:22.339Z,90.80
2023-07-21T19:59:49.350Z,90.70
2023-07-21T20:02:16.321Z,90.80
2023-07-21T20:04:43.716Z,90.90
2023-07-21T20:07:10.577Z,91.20
2023-07-21T20:09:37.352Z,91.60
2023-07-21T20:12:04.388Z,91.30
2023-07-21T20:14:31.183Z,91.30
2023-07-21T20:16:58.090Z,91.40
2023-07-21T20:19:24.942Z,91.40
2023-07-21T20:21:51.705Z,91.40
2023-07-21T20:24:18.501Z,91.30
2023-07-21T20:26:45.397Z,91.30
2023-07-21T20:29:13.045Z,91.30
2023-07-21T20:31:39.979Z,91.30
2023-07-21T20:34:06.842Z,91.30
2023-07-21T20:36:33.698Z,91.40
2023-07-21T20:39:00.534Z,91.30
2023-07-21T20:41:27.333Z,91.40
2023-07-21T20:43:54.128Z,91.30
2023-07-21T20:46:21.003Z,91.30
2023-07-21T20:48:47.817Z,91.30
2023-07-21T20:51:14.577Z,91.40
2023-07-21T20:53:41.414Z,91.40
2023-07-21T20:56:08.599Z,91.40
2023-07-21T20:58:35.879Z,91.40
2023-07-21T21:01:02.701Z,91.50
2023-07-21T21:03:29.535Z,91.70
2023-07-21T21:06:00.221Z,91.80
2023-07-21T21:08:27.565Z,91.90
2023-07-21T21:10:54.802Z,91.90
2023-07-21T21:13:22.483Z,92.10
2023-07-21T21:15:49.771Z,92.10
2023-07-21T21:18:16.792Z,92.10
2023-07-21T21:20:45.875Z,92.00
2023-07-21T21:23:13.401Z,92.20
2023-07-21T21:25:40.256Z,92.20
2023-07-21T21:28:08.418Z,92.20
2023-07-21T21:30:35.278Z,92.30
2023-07-21T21:33:02.244Z,92.40
2023-07-21T21:35:29.103Z,92.40
2023-07-21T21:37:55.926Z,92.60
2023-07-21T21:40:22.696Z,92.60
2023-07-21T21:42:49.555Z,92.70
2023-07-21T21:45:16.386Z,92.70
2023-07-21T21:47:43.185Z,92.90
2023-07-21T21:50:10.247Z,92.90
2023-07-21T21:52:37.087Z,92.90
2023-07-21T21:55:05.128Z,93.00
2023-07-21T21:57:31.970Z,93.10
2023-07-21T21:59:58.737Z,93.00
2023-07-21T22:02:25.669Z,93.00
2023-07-21T22:04:52.601Z,93.10
2023-07-21T22:07:19.405Z,93.10
2023-07-21T22:09:46.147Z,93.30
2023-07-21T22:12:12.961Z,93.50
2023-07-21T22:14:54.631Z,93.30
2023-07-21T22:17:24.083Z,93.30
2023-07-21T22:20:03.630Z,93.30
2023-07-21T22:22:36.268Z,93.30
2023-07-21T22:25:03.627Z,93.40
2023-07-21T22:27:30.679Z,93.40
2023-07-21T22:29:57.448Z,93.30
2023-07-21T22:32:24.454Z,93.40
2023-07-21T22:34:51.611Z,93.50
2023-07-21T22:37:18.460Z,93.50
2023-07-21T22:39:45.215Z,93.50
2023-07-21T22:42:11.979Z,93.70
2023-07-21T22:44:38.811Z,93.80
2023-07-21T22:47:05.863Z,93.80
2023-07-21T22:49:32.646Z,93.90
2023-07-21T22:51:59.437Z,93.90
2023-07-21T22:54:26.181Z,94.00
2023-07-21T22:56:53.017Z,94.10
2023-07-21T22:59:19.785Z,94.20
2023-07-21T23:01:46.653Z,94.20
2023-07-21T23:04:13.510Z,94.30
2023-07-21T23:06:42.623Z,94.40
2023-07-21T23:09:09.563Z,94.80
2023-07-21T23:11:36.381Z,94.60
2023-07-21T23:14:03.169Z,94.60
2023-07-21T23:16:30.284Z,94.80
2023-07-21T23:18:57.352Z,94.80
2023-07-21T23:21:24.394Z,95.00
2023-07-21T23:23:51.320Z,95.30
2023-07-21T23:26:18.133Z,94.80
2023-07-21T23:28:44.908Z,94.90
2023-07-21T23:31:12.500Z,94.80
2023-07-21T23:33:39.317Z,94.90
2023-07-21T23:36:06.214Z,94.90
2023-07-21T23:38:33.867Z,95.00
2023-07-21T23:41:00.837Z,94.80
2023-07-21T23:43:27.668Z,95.10
2023-07-21T23:45:58.877Z,94.90
2023-07-21T23:48:27.003Z,95.00
2023-07-21T23:50:53.868Z,95.00
2023-07-21T23:53:20.713Z,95.10
2023-07-21T23:55:47.525Z,95.20
2023-07-21T23:58:14.433Z,95.20
